Time;durP1;ratioP1;P1;durP2;ratioP2;P2;SDS_P1;SDS_P2;PMS_P1;PMS_P2;Temp;Humidity;BMP_temperature;BMP_pressure;BME280_temperature;BME280_humidity;BME280_pressure;Samples;Min_cycle;Max_cycle;Signal;HPM_P1;HPM_P2
2022/11/05 00:09:58;;;;;;;3.13;2.30;;;;;;;;;;5011627;28;99594;-78
2022/11/05 00:18:04;;;;;;;2.85;2.25;;;;;;;;;;4950506;28;99361;-78
2022/11/05 00:20:30;;;;;;;3.63;2.08;;;;;;;;;;4934566;28;99541;-79
2022/11/05 00:25:54;;;;;;;3.78;2.65;;;;;;;;;;4950960;28;99481;-77
2022/11/05 00:28:21;;;;;;;2.90;2.05;;;;;;;;;;4935649;28;98638;-78
2022/11/05 00:30:47;;;;;;;3.45;2.42;;;;;;;;;;4950563;28;99459;-78
2022/11/05 00:33:14;;;;;;;2.63;1.98;;;;;;;;;;4950067;28;99514;-78
2022/11/05 00:35:40;;;;;;;2.65;1.95;;;;;;;;;;4935033;28;97834;-78
2022/11/05 00:38:06;;;;;;;3.42;2.50;;;;;;;;;;4951176;28;98506;-78
2022/11/05 00:40:33;;;;;;;2.47;1.92;;;;;;;;;;4934519;28;99486;-78
2022/11/05 00:45:44;;;;;;;3.47;2.05;;;;;;;;;;4953027;28;99949;-78
2022/11/05 00:50:55;;;;;;;2.50;1.90;;;;;;;;;;4957224;28;99093;-78
2022/11/05 00:53:21;;;;;;;2.20;2.00;;;;;;;;;;4993835;28;99487;-78
2022/11/05 00:55:47;;;;;;;3.08;2.00;;;;;;;;;;5012019;28;98841;-78
2022/11/05 00:58:15;;;;;;;2.72;2.08;;;;;;;;;;5011696;28;99317;-78
2022/11/05 01:00:43;;;;;;;1.95;1.70;;;;;;;;;;5012634;28;98716;-79
2022/11/05 01:03:10;;;;;;;3.63;1.90;;;;;;;;;;5011777;28;98947;-78
2022/11/05 01:05:41;;;;;;;2.78;2.28;;;;;;;;;;5011466;28;99375;-78
2022/11/05 01:08:08;;;;;;;2.00;1.80;;;;;;;;;;5013545;28;100119;-78
2022/11/05 01:10:49;;;;;;;3.00;1.88;;;;;;;;;;5010869;28;100161;-78
2022/11/05 01:13:16;;;;;;;2.42;1.63;;;;;;;;;;5010723;28;102677;-78
2022/11/05 01:15:43;;;;;;;2.08;1.70;;;;;;;;;;5018312;28;98492;-78
2022/11/05 01:18:10;;;;;;;2.22;1.88;;;;;;;;;;5031672;28;99119;-78
2022/11/05 01:20:36;;;;;;;1.70;1.50;;;;;;;;;;5030941;28;99434;-78
2022/11/05 01:23:02;;;;;;;1.75;1.42;;;;;;;;;;5013342;28;98471;-78
2022/11/05 01:25:34;;;;;;;1.80;1.63;;;;;;;;;;5015115;28;100827;-78
2022/11/05 01:28:03;;;;;;;3.22;1.88;;;;;;;;;;5031079;28;99519;-78
2022/11/05 01:30:30;;;;;;;1.60;1.50;;;;;;;;;;5034458;28;98579;-78
2022/11/05 01:32:56;;;;;;;1.52;1.25;;;;;;;;;;5030888;28;101335;-78
2022/11/05 01:35:22;;;;;;;1.77;1.55;;;;;;;;;;5031987;28;98544;-78
2022/11/05 01:37:49;;;;;;;1.67;1.58;;;;;;;;;;5029155;27;102146;-78
2022/11/05 01:40:16;;;;;;;2.10;1.58;;;;;;;;;;5051223;27;99510;-78
2022/11/05 01:42:43;;;;;;;2.83;1.65;;;;;;;;;;5051574;27;98576;-78
2022/11/05 01:45:11;;;;;;;1.95;1.30;;;;;;;;;;5049250;27;99585;-78
2022/11/05 01:47:50;;;;;;;2.30;1.60;;;;;;;;;;5031450;28;102474;-78
2022/11/05 01:50:34;;;;;;;1.70;1.38;;;;;;;;;;5031923;28;97798;-78
2022/11/05 01:53:01;;;;;;;1.40;1.30;;;;;;;;;;5032849;28;98748;-78
2022/11/05 01:55:29;;;;;;;1.50;1.40;;;;;;;;;;5031055;28;98577;-78
2022/11/05 01:57:57;;;;;;;1.95;1.50;;;;;;;;;;5030342;28;99970;-78
2022/11/05 02:00:23;;;;;;;2.53;1.48;;;;;;;;;;5013262;28;99460;-78
2022/11/05 02:02:50;;;;;;;2.15;1.20;;;;;;;;;;5031093;28;98569;-78
2022/11/05 02:05:16;;;;;;;1.77;1.50;;;;;;;;;;5030702;28;99135;-79
2022/11/05 02:07:43;;;;;;;1.40;1.30;;;;;;;;;;5030263;28;99965;-78
2022/11/05 02:10:14;;;;;;;1.30;1.20;;;;;;;;;;5012324;28;98549;-78
2022/11/05 02:12:42;;;;;;;2.72;1.38;;;;;;;;;;5015929;28;99121;-78
2022/11/05 02:15:10;;;;;;;1.40;1.25;;;;;;;;;;5013369;28;97830;-79
2022/11/05 02:17:45;;;;;;;2.10;1.30;;;;;;;;;;5013531;28;100337;-78
2022/11/05 02:20:17;;;;;;;1.73;1.27;;;;;;;;;;5030333;28;99813;-78
2022/11/05 02:22:49;;;;;;;1.58;1.30;;;;;;;;;;5029853;28;99230;-78
2022/11/05 02:25:25;;;;;;;1.50;1.30;;;;;;;;;;5030649;28;100375;-78
2022/11/05 02:27:51;;;;;;;1.25;1.10;;;;;;;;;;5030720;28;99351;-79
2022/11/05 02:30:17;;;;;;;1.73;1.30;;;;;;;;;;5031160;28;98481;-78
2022/11/05 02:32:55;;;;;;;2.90;1.35;;;;;;;;;;5030495;27;99144;-78
2022/11/05 02:35:31;;;;;;;1.48;1.38;;;;;;;;;;5036970;28;100929;-78
2022/11/05 02:38:03;;;;;;;2.22;1.40;;;;;;;;;;5050848;27;99494;-78
2022/11/05 02:40:32;;;;;;;1.15;1.05;;;;;;;;;;5054280;27;98726;-78
2022/11/05 02:43:02;;;;;;;1.35;1.10;;;;;;;;;;5054505;27;98506;-78
2022/11/05 02:45:40;;;;;;;1.23;1.10;;;;;;;;;;5031609;28;99444;-78
2022/11/05 02:48:13;;;;;;;2.35;1.30;;;;;;;;;;5015753;28;100496;-79
2022/11/05 02:50:53;;;;;;;2.03;1.05;;;;;;;;;;5033371;28;98535;-78
2022/11/05 02:53:27;;;;;;;1.15;1.05;;;;;;;;;;5033446;28;99135;-78
2022/11/05 02:56:02;;;;;;;1.48;1.00;;;;;;;;;;5015639;28;99874;-78
2022/11/05 02:58:29;;;;;;;1.00;0.90;;;;;;;;;;5036765;28;98537;-78
2022/11/05 03:00:56;;;;;;;1.20;1.10;;;;;;;;;;5034077;28;102499;-78
2022/11/05 03:03:42;;;;;;;2.00;1.15;;;;;;;;;;5033639;28;98469;-79
2022/11/05 03:06:26;;;;;;;1.63;0.90;;;;;;;;;;5033534;28;99392;-78
2022/11/05 03:08:53;;;;;;;2.13;1.20;;;;;;;;;;5032730;28;99555;-78
2022/11/05 03:11:20;;;;;;;1.23;1.13;;;;;;;;;;5016402;28;98576;-78
2022/11/05 03:13:49;;;;;;;1.65;1.17;;;;;;;;;;5032886;28;99202;-78
2022/11/05 03:16:29;;;;;;;1.38;0.98;;;;;;;;;;5033193;28;99488;-78
2022/11/05 03:19:05;;;;;;;1.13;0.98;;;;;;;;;;5015461;28;98558;-78
2022/11/05 03:21:34;;;;;;;1.83;1.15;;;;;;;;;;5018523;28;99674;-78
2022/11/05 03:24:04;;;;;;;1.05;0.90;;;;;;;;;;5015235;28;98712;-78
2022/11/05 03:26:34;;;;;;;1.13;1.08;;;;;;;;;;5015467;28;99761;-78
2022/11/05 03:29:05;;;;;;;1.17;1.08;;;;;;;;;;5032889;28;99539;-79
2022/11/05 03:31:33;;;;;;;1.20;1.10;;;;;;;;;;5033641;28;97742;-78
2022/11/05 03:34:00;;;;;;;1.10;1.00;;;;;;;;;;5015061;28;98516;-78
2022/11/05 03:36:31;;;;;;;1.52;1.20;;;;;;;;;;5037176;27;99502;-78
2022/11/05 03:39:01;;;;;;;0.90;0.90;;;;;;;;;;5035015;27;99305;-78
2022/11/05 03:41:28;;;;;;;1.03;0.90;;;;;;;;;;5053285;27;99930;-78
2022/11/05 03:43:56;;;;;;;2.28;1.13;;;;;;;;;;5056178;27;99360;-78
2022/11/05 03:46:31;;;;;;;2.63;1.27;;;;;;;;;;5040649;27;99149;-78
2022/11/05 03:49:00;;;;;;;1.30;1.00;;;;;;;;;;5014768;28;100229;-78
2022/11/05 03:51:47;;;;;;;1.90;1.00;;;;;;;;;;5032930;28;98484;-78
2022/11/05 03:54:13;;;;;;;1.00;0.90;;;;;;;;;;5032693;28;99094;-78
2022/11/05 03:56:43;;;;;;;1.02;0.93;;;;;;;;;;5032936;28;98851;-78
2022/11/05 03:59:09;;;;;;;2.47;1.00;;;;;;;;;;5032838;28;98564;-78
2022/11/05 04:01:37;;;;;;;1.25;0.95;;;;;;;;;;5015279;28;100224;-79
2022/11/05 04:04:06;;;;;;;1.88;1.10;;;;;;;;;;5031745;28;100418;-78
2022/11/05 04:14:47;;;;;;;1.63;0.93;;;;;;;;;;5032801;28;99141;-78
2022/11/05 04:17:13;;;;;;;1.23;1.00;;;;;;;;;;5032774;28;99236;-78
2022/11/05 04:25:12;;;;;;;1.60;0.77;;;;;;;;;;5032053;28;99426;-78
2022/11/05 04:27:39;;;;;;;0.90;0.90;;;;;;;;;;5035658;28;98670;-78
2022/11/05 04:30:17;;;;;;;1.13;0.95;;;;;;;;;;5031071;28;100650;-78
2022/11/05 04:33:02;;;;;;;0.80;0.80;;;;;;;;;;5032685;28;98489;-77
2022/11/05 04:35:30;;;;;;;0.95;0.80;;;;;;;;;;5014545;28;101798;-78
2022/11/05 04:37:56;;;;;;;1.33;0.90;;;;;;;;;;5030401;27;99540;-78
2022/11/05 04:40:22;;;;;;;1.13;0.88;;;;;;;;;;5053225;27;98561;-78
2022/11/05 04:42:49;;;;;;;1.15;0.70;;;;;;;;;;5052392;27;99389;-78
2022/11/05 04:45:15;;;;;;;1.13;0.90;;;;;;;;;;5049011;27;99715;-78
2022/11/05 04:47:41;;;;;;;2.42;0.90;;;;;;;;;;5015129;28;97730;-78
2022/11/05 04:50:09;;;;;;;0.60;0.60;;;;;;;;;;5017009;28;98561;-79
2022/11/05 04:52:35;;;;;;;1.95;1.10;;;;;;;;;;5032637;28;98534;-78
2022/11/05 04:55:02;;;;;;;0.75;0.75;;;;;;;;;;5031997;28;101187;-78
2022/11/05 04:57:28;;;;;;;1.02;0.88;;;;;;;;;;5012891;28;99551;-79
2022/11/05 04:59:54;;;;;;;0.95;0.77;;;;;;;;;;5032071;28;98798;-78
2022/11/05 05:02:20;;;;;;;1.80;1.02;;;;;;;;;;5032098;28;99280;-78
2022/11/05 05:04:47;;;;;;;0.85;0.65;;;;;;;;;;5031387;28;100002;-79
2022/11/05 05:07:13;;;;;;;0.93;0.85;;;;;;;;;;5031639;28;98610;-78
2022/11/05 05:09:39;;;;;;;3.03;1.00;;;;;;;;;;5031086;28;99130;-79
2022/11/05 05:12:06;;;;;;;1.25;0.90;;;;;;;;;;5035191;28;98732;-78
2022/11/05 05:14:33;;;;;;;1.25;0.80;;;;;;;;;;5031491;28;98453;-78
2022/11/05 05:16:59;;;;;;;0.80;0.80;;;;;;;;;;5031186;28;99492;-78
2022/11/05 05:19:26;;;;;;;2.75;0.88;;;;;;;;;;5013820;28;99485;-78
2022/11/05 05:21:52;;;;;;;1.60;0.90;;;;;;;;;;5031614;28;100013;-78
2022/11/05 05:24:19;;;;;;;0.98;0.73;;;;;;;;;;5013142;28;99513;-78
2022/11/05 05:26:47;;;;;;;1.25;0.90;;;;;;;;;;5013536;28;98489;-78
2022/11/05 05:29:14;;;;;;;1.05;0.90;;;;;;;;;;5013313;28;99158;-78
2022/11/05 05:31:41;;;;;;;0.93;0.80;;;;;;;;;;5031460;28;100507;-78
2022/11/05 05:34:09;;;;;;;4.20;0.73;;;;;;;;;;5016782;28;98651;-78
2022/11/05 05:36:35;;;;;;;1.30;0.90;;;;;;;;;;5036913;27;99113;-79
2022/11/05 05:39:04;;;;;;;1.17;0.80;;;;;;;;;;5052044;27;98471;-78
2022/11/05 05:41:31;;;;;;;1.10;0.80;;;;;;;;;;5033392;27;99188;-78
2022/11/05 05:43:57;;;;;;;1.00;0.80;;;;;;;;;;5033015;27;100258;-78
2022/11/05 05:46:23;;;;;;;1.10;0.80;;;;;;;;;;5021353;28;98476;-78
2022/11/05 05:48:51;;;;;;;1.10;0.70;;;;;;;;;;5013193;28;99509;-78
2022/11/05 05:51:17;;;;;;;3.03;0.90;;;;;;;;;;5031070;28;100552;-78
2022/11/05 05:53:44;;;;;;;0.95;0.68;;;;;;;;;;5013497;28;98566;-78
2022/11/05 05:56:13;;;;;;;1.60;0.90;;;;;;;;;;5015894;28;99346;-78
2022/11/05 05:58:40;;;;;;;1.92;1.10;;;;;;;;;;5030771;28;98998;-78
2022/11/05 06:01:10;;;;;;;1.98;1.10;;;;;;;;;;5013941;28;99116;-78
2022/11/05 06:03:44;;;;;;;0.70;0.68;;;;;;;;;;5031007;28;99458;-78
2022/11/05 06:06:13;;;;;;;1.60;0.80;;;;;;;;;;5031524;28;98800;-78
2022/11/05 06:08:41;;;;;;;1.00;0.95;;;;;;;;;;5029934;27;100142;-78
2022/11/05 06:11:07;;;;;;;0.88;0.60;;;;;;;;;;5013043;28;102565;-78
2022/11/05 06:13:34;;;;;;;1.48;0.70;;;;;;;;;;5030855;28;98514;-78
2022/11/05 06:16:01;;;;;;;0.60;0.60;;;;;;;;;;5015889;28;98985;-78
2022/11/05 06:18:29;;;;;;;2.45;0.77;;;;;;;;;;5030580;28;98527;-78
2022/11/05 06:20:59;;;;;;;1.25;0.90;;;;;;;;;;5031164;28;99274;-78
2022/11/05 06:23:26;;;;;;;1.00;0.77;;;;;;;;;;5012964;28;99586;-78
2022/11/05 06:25:52;;;;;;;0.73;0.73;;;;;;;;;;5013341;28;97909;-78
2022/11/05 06:28:18;;;;;;;1.17;0.60;;;;;;;;;;5013167;28;99387;-78
2022/11/05 06:30:49;;;;;;;1.27;0.68;;;;;;;;;;5029872;28;99444;-78
2022/11/05 06:33:15;;;;;;;1.48;0.95;;;;;;;;;;5029728;28;99459;-78
2022/11/05 06:35:41;;;;;;;3.40;0.80;;;;;;;;;;5030272;28;100527;-78
2022/11/05 06:38:08;;;;;;;1.42;0.90;;;;;;;;;;5051442;27;99815;-78
2022/11/05 06:40:34;;;;;;;1.20;0.70;;;;;;;;;;5051208;27;99274;-78
2022/11/05 06:43:00;;;;;;;2.10;0.95;;;;;;;;;;5032845;27;99818;-78
2022/11/05 06:45:26;;;;;;;1.30;0.80;;;;;;;;;;5046701;27;98499;-78
2022/11/05 06:47:56;;;;;;;1.02;0.70;;;;;;;;;;5030533;28;99121;-79
2022/11/05 06:50:23;;;;;;;0.60;0.60;;;;;;;;;;5012548;28;98788;-78
2022/11/05 06:52:59;;;;;;;1.17;0.80;;;;;;;;;;5030559;28;98466;-78
2022/11/05 06:55:27;;;;;;;0.68;0.68;;;;;;;;;;5030539;28;100095;-78
2022/11/05 06:57:54;;;;;;;0.60;0.60;;;;;;;;;;5011692;28;100291;-78
2022/11/05 07:00:20;;;;;;;0.85;0.80;;;;;;;;;;5033437;28;98537;-78
2022/11/05 07:02:47;;;;;;;1.63;0.73;;;;;;;;;;5029765;28;99463;-78
2022/11/05 07:05:14;;;;;;;1.42;0.80;;;;;;;;;;5030093;28;98646;-78
2022/11/05 07:07:41;;;;;;;0.93;0.70;;;;;;;;;;5012291;28;99086;-79
2022/11/05 07:10:10;;;;;;;0.70;0.70;;;;;;;;;;5008295;28;99748;-78
2022/11/05 07:12:36;;;;;;;1.17;0.80;;;;;;;;;;5010337;28;98597;-78
2022/11/05 07:15:03;;;;;;;1.42;0.90;;;;;;;;;;5010909;28;99126;-78
2022/11/05 07:17:29;;;;;;;1.92;0.80;;;;;;;;;;5009462;28;99615;-78
2022/11/05 07:19:55;;;;;;;0.57;0.57;;;;;;;;;;5009954;28;98554;-78
2022/11/05 07:22:21;;;;;;;0.90;0.75;;;;;;;;;;5015990;28;99253;-78
2022/11/05 07:24:49;;;;;;;0.70;0.60;;;;;;;;;;5011910;28;98635;-78
2022/11/05 07:27:15;;;;;;;1.00;0.73;;;;;;;;;;5013318;28;100134;-78
2022/11/05 07:29:42;;;;;;;1.55;0.77;;;;;;;;;;5011442;28;99492;-78
2022/11/05 07:32:08;;;;;;;1.00;0.77;;;;;;;;;;5013143;28;98566;-78
2022/11/05 07:34:34;;;;;;;1.70;0.70;;;;;;;;;;5011655;28;99258;-78
2022/11/05 07:37:00;;;;;;;1.45;0.80;;;;;;;;;;5021394;28;99578;-77
2022/11/05 07:39:27;;;;;;;0.90;0.77;;;;;;;;;;5034030;27;98092;-78
2022/11/05 07:41:53;;;;;;;1.42;0.80;;;;;;;;;;5031865;28;98818;-78
2022/11/05 07:44:20;;;;;;;0.73;0.73;;;;;;;;;;5036297;27;100340;-78
2022/11/05 07:46:46;;;;;;;1.35;0.80;;;;;;;;;;5017334;27;99191;-78
2022/11/05 07:49:13;;;;;;;1.33;1.00;;;;;;;;;;5012566;28;100189;-78
2022/11/05 07:51:39;;;;;;;1.02;0.73;;;;;;;;;;5012915;28;98769;-78
2022/11/05 07:54:05;;;;;;;0.95;0.85;;;;;;;;;;5012973;28;100237;-78
2022/11/05 07:56:31;;;;;;;1.63;0.95;;;;;;;;;;5011221;28;99810;-78
2022/11/05 07:58:58;;;;;;;1.75;0.80;;;;;;;;;;5011982;28;98515;-78
2022/11/05 08:01:24;;;;;;;0.77;0.70;;;;;;;;;;5013020;28;99176;-78
2022/11/05 08:03:50;;;;;;;0.63;0.52;;;;;;;;;;5013202;28;98925;-78
2022/11/05 08:06:17;;;;;;;0.60;0.60;;;;;;;;;;5016465;28;98597;-78
2022/11/05 08:08:43;;;;;;;1.63;0.90;;;;;;;;;;5012928;28;99498;-78
2022/11/05 08:11:10;;;;;;;1.58;0.70;;;;;;;;;;5014037;28;99404;-78
2022/11/05 08:13:36;;;;;;;0.88;0.88;;;;;;;;;;5014529;28;100199;-79
2022/11/05 08:16:02;;;;;;;0.70;0.70;;;;;;;;;;5032103;28;99809;-78
2022/11/05 08:18:32;;;;;;;0.60;0.60;;;;;;;;;;5014491;28;98614;-78
2022/11/05 08:20:59;;;;;;;;;;;;;;;;;;5032800;28;99730;-79
2022/11/05 08:23:26;;;;;;;1.08;0.85;;;;;;;;;;5032886;28;130294;-78
2022/11/05 08:25:52;;;;;;;1.63;0.88;;;;;;;;;;5036482;28;98553;-78
2022/11/05 08:28:20;;;;;;;1.40;0.75;;;;;;;;;;5032305;28;99260;-78
2022/11/05 08:30:47;;;;;;;1.63;0.88;;;;;;;;;;5013870;28;98637;-78
2022/11/05 08:33:13;;;;;;;3.33;0.98;;;;;;;;;;5014303;28;100480;-78
2022/11/05 08:35:40;;;;;;;2.65;1.10;;;;;;;;;;5013485;28;100233;-78
2022/11/05 08:38:08;;;;;;;1.45;0.98;;;;;;;;;;5050406;27;98547;-79
2022/11/05 08:40:35;;;;;;;0.88;0.80;;;;;;;;;;5052583;27;99461;-78
2022/11/05 08:43:02;;;;;;;1.52;1.00;;;;;;;;;;5052131;27;99880;-79
2022/11/05 08:45:29;;;;;;;1.60;1.00;;;;;;;;;;5047484;27;98506;-78
2022/11/05 08:48:05;;;;;;;1.25;0.95;;;;;;;;;;5035206;28;99165;-78
2022/11/05 08:50:32;;;;;;;1.67;0.80;;;;;;;;;;5031068;28;98563;-78
2022/11/05 08:52:58;;;;;;;1.85;1.00;;;;;;;;;;5032624;28;100511;-78
2022/11/05 08:55:25;;;;;;;1.95;1.20;;;;;;;;;;5031212;28;99576;-78
2022/11/05 08:57:58;;;;;;;1.08;0.98;;;;;;;;;;5032211;28;98524;-78
2022/11/05 09:00:25;;;;;;;1.23;1.00;;;;;;;;;;5031325;28;99507;-78
2022/11/05 09:02:51;;;;;;;2.05;1.02;;;;;;;;;;5031554;28;99835;-78
2022/11/05 09:05:18;;;;;;;1.80;1.25;;;;;;;;;;5031580;28;98493;-78
2022/11/05 09:07:45;;;;;;;2.00;1.00;;;;;;;;;;5030894;28;99245;-78
2022/11/05 09:10:12;;;;;;;1.27;0.73;;;;;;;;;;5034162;28;99500;-78
2022/11/05 09:12:38;;;;;;;0.90;0.90;;;;;;;;;;5031480;28;100330;-78
2022/11/05 09:15:04;;;;;;;1.42;0.82;;;;;;;;;;5031205;28;99524;-78
2022/11/05 09:17:30;;;;;;;2.45;0.98;;;;;;;;;;5014527;28;97897;-78
2022/11/05 09:19:57;;;;;;;2.45;1.17;;;;;;;;;;5013764;28;98754;-78
2022/11/05 09:22:23;;;;;;;2.58;1.40;;;;;;;;;;5013234;28;99521;-78
2022/11/05 09:24:49;;;;;;;2.15;1.23;;;;;;;;;;5030951;28;99275;-78
2022/11/05 09:27:16;;;;;;;1.20;0.90;;;;;;;;;;5013564;28;99910;-78
2022/11/05 09:29:43;;;;;;;1.95;1.10;;;;;;;;;;5013391;28;101884;-78
2022/11/05 09:32:09;;;;;;;1.50;0.80;;;;;;;;;;5016872;28;98631;-78
2022/11/05 09:34:35;;;;;;;2.25;1.23;;;;;;;;;;5031560;28;103433;-78
2022/11/05 09:37:01;;;;;;;1.60;0.90;;;;;;;;;;5039948;27;98522;-78
2022/11/05 09:39:28;;;;;;;1.20;0.90;;;;;;;;;;5052034;27;100249;-77
2022/11/05 09:41:58;;;;;;;1.00;0.90;;;;;;;;;;5051720;27;99103;-78
2022/11/05 09:44:26;;;;;;;1.83;1.10;;;;;;;;;;5033153;27;98536;-78
2022/11/05 09:46:57;;;;;;;1.98;1.13;;;;;;;;;;5035213;27;99769;-78
2022/11/05 09:49:28;;;;;;;2.08;1.17;;;;;;;;;;5029787;28;100652;-78
2022/11/05 09:51:56;;;;;;;2.38;1.17;;;;;;;;;;5013232;28;98505;-78
2022/11/05 09:54:27;;;;;;;1.65;1.20;;;;;;;;;;5034650;28;99226;-78
2022/11/05 09:56:54;;;;;;;1.83;1.08;;;;;;;;;;5030910;28;98498;-78
2022/11/05 09:59:23;;;;;;;3.05;1.20;;;;;;;;;;5031011;28;99213;-78
2022/11/05 10:01:51;;;;;;;0.95;0.90;;;;;;;;;;5012450;28;99663;-78
2022/11/05 10:04:19;;;;;;;1.10;1.00;;;;;;;;;;5030995;28;98523;-78
2022/11/05 10:06:57;;;;;;;1.35;0.93;;;;;;;;;;5030644;28;99070;-78
2022/11/05 10:09:25;;;;;;;1.85;1.08;;;;;;;;;;5012705;28;99499;-78
2022/11/05 10:12:10;;;;;;;1.58;0.98;;;;;;;;;;5030937;28;98655;-78
2022/11/05 10:14:46;;;;;;;2.15;0.90;;;;;;;;;;5012570;28;99515;-78
2022/11/05 10:17:17;;;;;;;3.28;1.20;;;;;;;;;;5015882;28;99934;-78
2022/11/05 10:19:46;;;;;;;3.55;1.42;;;;;;;;;;5013202;28;99158;-78
2022/11/05 10:22:15;;;;;;;1.10;1.00;;;;;;;;;;5030402;28;99509;-78
2022/11/05 10:24:42;;;;;;;4.38;1.23;;;;;;;;;;5030743;28;98507;-78
2022/11/05 10:27:13;;;;;;;1.85;1.38;;;;;;;;;;5031061;28;102547;-78
2022/11/05 10:29:41;;;;;;;2.15;1.23;;;;;;;;;;5030202;28;99895;-78
2022/11/05 10:32:11;;;;;;;1.17;1.02;;;;;;;;;;5031555;28;97791;-78
2022/11/05 10:34:38;;;;;;;1.40;1.10;;;;;;;;;;5030682;28;98956;-78
2022/11/05 10:37:04;;;;;;;2.03;1.20;;;;;;;;;;5042633;27;99407;-78
2022/11/05 10:39:31;;;;;;;2.40;1.50;;;;;;;;;;5049596;27;100063;-78
2022/11/05 10:42:16;;;;;;;0.85;0.82;;;;;;;;;;5050797;27;100461;-78
2022/11/05 10:45:00;;;;;;;1.95;1.25;;;;;;;;;;5050823;27;98780;-78
2022/11/05 10:47:34;;;;;;;3.72;1.33;;;;;;;;;;4993201;28;101531;-78
2022/11/05 10:50:01;;;;;;;2.15;1.30;;;;;;;;;;5009365;28;100085;-78
2022/11/05 10:52:32;;;;;;;4.72;1.25;;;;;;;;;;5010712;28;98679;-78
2022/11/05 10:55:22;;;;;;;2.67;1.02;;;;;;;;;;4994250;28;101219;-78
2022/11/05 10:57:48;;;;;;;1.77;1.20;;;;;;;;;;4897436;28;99050;-78
2022/11/05 11:00:17;;;;;;;4.25;1.33;;;;;;;;;;4916945;28;98664;-78
2022/11/05 11:02:46;;;;;;;1.98;1.48;;;;;;;;;;4912509;28;99454;-78
2022/11/05 11:05:21;;;;;;;1.52;1.15;;;;;;;;;;4913066;28;99371;-78
2022/11/05 11:07:55;;;;;;;2.40;1.38;;;;;;;;;;4912904;28;99921;-80
2022/11/05 11:10:21;;;;;;;2.45;1.42;;;;;;;;;;4912079;28;100123;-77
2022/11/05 11:12:49;;;;;;;0.93;0.90;;;;;;;;;;4911827;28;99849;-77
2022/11/05 11:15:21;;;;;;;2.80;1.23;;;;;;;;;;4914361;28;99474;-77
2022/11/05 11:17:47;;;;;;;1.10;1.00;;;;;;;;;;4931720;28;99433;-78
2022/11/05 11:20:19;;;;;;;2.10;1.17;;;;;;;;;;4931515;28;98532;-77
2022/11/05 11:23:04;;;;;;;1.48;1.10;;;;;;;;;;4918293;28;99832;-77
2022/11/05 11:25:40;;;;;;;2.10;1.30;;;;;;;;;;4931275;28;98619;-78
2022/11/05 11:28:13;;;;;;;2.40;1.27;;;;;;;;;;4931264;28;99137;-78
2022/11/05 11:30:45;;;;;;;1.48;1.25;;;;;;;;;;4930722;28;101555;-78
2022/11/05 11:33:11;;;;;;;1.20;0.90;;;;;;;;;;4930873;28;98697;-77
2022/11/05 11:35:44;;;;;;;1.90;1.13;;;;;;;;;;5010725;28;99112;-77
2022/11/05 11:38:12;;;;;;;2.40;1.17;;;;;;;;;;5050185;27;99530;-78
2022/11/05 11:40:39;;;;;;;3.05;1.35;;;;;;;;;;5052599;27;98515;-78
2022/11/05 11:43:12;;;;;;;1.95;1.17;;;;;;;;;;5034404;27;99188;-78
2022/11/05 11:45:44;;;;;;;2.33;1.20;;;;;;;;;;5048922;27;99647;-78
2022/11/05 11:48:17;;;;;;;2.35;1.60;;;;;;;;;;5031836;28;99116;-78
2022/11/05 11:50:44;;;;;;;1.33;1.10;;;;;;;;;;5032310;28;99372;-77
2022/11/05 11:53:24;;;;;;;2.08;1.15;;;;;;;;;;5013976;28;98574;-78
2022/11/05 11:55:53;;;;;;;2.08;1.35;;;;;;;;;;5031588;28;99512;-77
2022/11/05 11:58:33;;;;;;;1.45;1.20;;;;;;;;;;5013352;28;99460;-77
2022/11/05 12:01:05;;;;;;;2.35;1.50;;;;;;;;;;5014472;28;98432;-77
2022/11/05 12:03:46;;;;;;;2.00;0.95;;;;;;;;;;5031701;28;99787;-78
2022/11/05 12:06:34;;;;;;;1.52;1.00;;;;;;;;;;5013385;28;99530;-78
2022/11/05 12:09:01;;;;;;;4.30;1.45;;;;;;;;;;4994550;28;1120568;-77
2022/11/05 12:11:37;;;;;;;4.35;1.30;;;;;;;;;;5015129;28;99444;-77
2022/11/05 12:14:04;;;;;;;1.00;1.00;;;;;;;;;;5015302;28;97802;-77
2022/11/05 12:16:37;;;;;;;1.80;1.27;;;;;;;;;;5014716;28;98973;-78
2022/11/05 12:19:14;;;;;;;2.00;1.15;;;;;;;;;;5032161;28;99595;-77
2022/11/05 12:21:59;;;;;;;1.95;1.10;;;;;;;;;;5013996;28;99293;-77
2022/11/05 12:24:25;;;;;;;2.08;1.33;;;;;;;;;;5032536;28;102548;-78
2022/11/05 12:27:04;;;;;;;1.15;1.02;;;;;;;;;;5032146;28;100118;-77
2022/11/05 12:29:49;;;;;;;1.27;1.17;;;;;;;;;;5033188;28;98823;-78
2022/11/05 12:32:26;;;;;;;3.13;1.65;;;;;;;;;;5036032;28;99610;-78
2022/11/05 12:35:17;;;;;;;3.10;1.38;;;;;;;;;;5032367;28;98481;-78
2022/11/05 12:38:04;;;;;;;1.60;1.10;;;;;;;;;;5029367;27;100156;-77
2022/11/05 12:40:51;;;;;;;2.10;1.15;;;;;;;;;;5053051;27;98866;-77
2022/11/05 12:43:35;;;;;;;1.77;1.13;;;;;;;;;;5052508;27;98751;-77
2022/11/05 12:46:20;;;;;;;3.05;1.30;;;;;;;;;;5043426;27;99675;-78
2022/11/05 12:48:46;;;;;;;2.65;1.42;;;;;;;;;;5030883;28;100769;-78
2022/11/05 12:51:38;;;;;;;2.90;0.98;;;;;;;;;;5032168;28;98511;-78
2022/11/05 12:54:04;;;;;;;1.85;1.13;;;;;;;;;;5034782;28;99418;-78
2022/11/05 12:56:45;;;;;;;2.22;1.20;;;;;;;;;;5032569;28;98492;-78
2022/11/05 12:59:18;;;;;;;1.15;0.98;;;;;;;;;;5014464;28;100231;-78
2022/11/05 13:01:49;;;;;;;1.77;1.13;;;;;;;;;;5032096;28;99904;-78
2022/11/05 13:04:30;;;;;;;1.58;1.00;;;;;;;;;;5032279;28;98756;-78
2022/11/05 13:06:59;;;;;;;2.10;1.20;;;;;;;;;;5032303;28;99476;-77
2022/11/05 13:09:33;;;;;;;2.10;1.27;;;;;;;;;;5030862;28;99623;-78
2022/11/05 13:12:03;;;;;;;2.08;1.25;;;;;;;;;;5031703;28;98555;-78
2022/11/05 13:14:35;;;;;;;1.50;1.10;;;;;;;;;;5031385;28;101213;-78
2022/11/05 13:17:01;;;;;;;1.70;1.20;;;;;;;;;;5034497;27;99490;-77
2022/11/05 13:19:28;;;;;;;1.88;1.40;;;;;;;;;;5032027;28;99136;-78
2022/11/05 13:22:13;;;;;;;2.08;1.30;;;;;;;;;;5013080;28;99480;-78
2022/11/05 13:24:46;;;;;;;2.80;1.05;;;;;;;;;;5032082;28;98482;-79
2022/11/05 13:27:15;;;;;;;1.20;1.00;;;;;;;;;;5032380;28;99419;-77
2022/11/05 13:29:46;;;;;;;1.40;1.30;;;;;;;;;;5031028;28;99879;-77
2022/11/05 13:32:24;;;;;;;2.47;1.30;;;;;;;;;;5032070;28;97645;-79
2022/11/05 13:34:53;;;;;;;2.85;1.40;;;;;;;;;;5031404;28;98492;-78
2022/11/05 13:40:09;;;;;;;1.63;1.20;;;;;;;;;;5054480;27;99587;-77
2022/11/05 13:42:59;;;;;;;1.77;1.00;;;;;;;;;;5033300;27;99369;-78
2022/11/05 13:45:37;;;;;;;3.83;1.17;;;;;;;;;;5047243;27;98508;-78
2022/11/05 13:48:22;;;;;;;2.42;1.02;;;;;;;;;;5031341;28;99361;-78
2022/11/05 13:50:51;;;;;;;1.60;1.20;;;;;;;;;;5012892;28;99875;-78
2022/11/05 13:53:38;;;;;;;1.30;1.05;;;;;;;;;;5013075;28;98550;-78
2022/11/05 13:56:10;;;;;;;1.80;1.10;;;;;;;;;;5031374;28;100104;-78
2022/11/05 13:58:43;;;;;;;1.65;1.20;;;;;;;;;;5013408;28;99114;-77
2022/11/05 14:01:18;;;;;;;1.42;1.20;;;;;;;;;;5031685;28;98478;-78
2022/11/05 14:03:48;;;;;;;2.15;1.45;;;;;;;;;;5033489;28;99655;-79
2022/11/05 14:06:15;;;;;;;;;;;;;;;;;;5030229;28;99264;-79
2022/11/05 14:08:45;;;;;;;2.85;1.30;;;;;;;;;;5031931;28;128979;-78
2022/11/05 14:11:22;;;;;;;2.45;1.38;;;;;;;;;;5030303;28;99847;-77
2022/11/05 14:13:51;;;;;;;2.33;1.30;;;;;;;;;;5012921;28;98503;-78
2022/11/05 14:16:19;;;;;;;2.80;1.30;;;;;;;;;;5012830;28;99489;-78
2022/11/05 14:18:47;;;;;;;2.45;1.35;;;;;;;;;;5030828;28;101746;-78
2022/11/05 14:21:27;;;;;;;1.70;1.25;;;;;;;;;;5030424;28;98484;-79
2022/11/05 14:23:55;;;;;;;1.17;1.08;;;;;;;;;;5031904;28;99114;-79
2022/11/05 14:26:23;;;;;;;1.50;1.20;;;;;;;;;;5033531;28;99530;-78
2022/11/05 14:29:09;;;;;;;2.67;1.35;;;;;;;;;;5011721;28;99455;-78
2022/11/05 14:31:40;;;;;;;2.38;1.00;;;;;;;;;;5029548;28;100249;-78
2022/11/05 14:34:40;;;;;;;1.40;1.20;;;;;;;;;;5015213;28;98447;-78
2022/11/05 14:37:09;;;;;;;2.10;1.15;;;;;;;;;;5022012;27;99643;-79
2022/11/05 14:39:35;;;;;;;1.35;1.10;;;;;;;;;;5050439;27;99389;-78
2022/11/05 14:42:04;;;;;;;2.38;0.95;;;;;;;;;;5032798;27;98591;-79
2022/11/05 14:44:33;;;;;;;2.20;1.43;;;;;;;;;;5051097;27;99168;-78
2022/11/05 14:47:01;;;;;;;1.67;1.30;;;;;;;;;;5015154;28;99492;-79
2022/11/05 14:49:32;;;;;;;1.55;1.10;;;;;;;;;;5034052;28;97821;-78
2022/11/05 14:52:03;;;;;;;1.60;1.20;;;;;;;;;;5029864;28;98437;-78
2022/11/05 14:54:40;;;;;;;2.10;1.08;;;;;;;;;;5030113;28;98539;-78
2022/11/05 14:57:10;;;;;;;1.38;1.10;;;;;;;;;;5030655;28;99316;-79
2022/11/05 14:59:50;;;;;;;1.45;1.10;;;;;;;;;;5029765;28;98588;-78
2022/11/05 15:02:16;;;;;;;;;;;;;;;;;;5012946;28;98549;-78
2022/11/05 15:04:44;;;;;;;4.28;1.20;;;;;;;;;;5012878;28;128030;-78
2022/11/05 15:07:12;;;;;;;1.58;1.15;;;;;;;;;;5029081;28;98569;-78
2022/11/05 15:09:40;;;;;;;2.58;1.38;;;;;;;;;;5032378;28;99497;-77
2022/11/05 15:12:18;;;;;;;4.05;1.50;;;;;;;;;;5029783;28;99536;-78
2022/11/05 15:14:47;;;;;;;1.95;1.30;;;;;;;;;;5030398;28;97795;-78
2022/11/05 15:17:28;;;;;;;3.97;1.40;;;;;;;;;;5030649;28;98512;-78
2022/11/05 15:20:14;;;;;;;1.52;1.33;;;;;;;;;;5029936;28;100817;-78
2022/11/05 15:22:42;;;;;;;3.65;1.35;;;;;;;;;;5011962;28;99552;-78
2022/11/05 15:25:16;;;;;;;3.38;1.52;;;;;;;;;;5029928;28;99897;-78
2022/11/05 15:27:55;;;;;;;2.22;1.17;;;;;;;;;;5030080;28;100549;-78
2022/11/05 15:30:22;;;;;;;2.63;1.45;;;;;;;;;;5030625;28;98449;-78
2022/11/05 15:32:49;;;;;;;2.38;1.20;;;;;;;;;;5014623;28;99147;-78
2022/11/05 15:35:25;;;;;;;1.30;1.20;;;;;;;;;;5029189;28;99238;-78
2022/11/05 15:37:53;;;;;;;2.15;1.33;;;;;;;;;;5027854;27;99151;-78